sensor_id;sensor_type;location;lat;lon;timestamp;P1;durP1;ratioP1;P2;durP2;ratioP2
20743;SDS011;56303;52.160;-0.428;2023-12-07T00:02:03;13.17;;;8.83;;
20743;SDS011;56303;52.160;-0.428;2023-12-07T00:04:31;12.97;;;8.80;;
20743;SDS011;56303;52.160;-0.428;2023-12-07T00:06:58;12.43;;;8.10;;
20743;SDS011;56303;52.160;-0.428;2023-12-07T00:09:25;11.70;;;7.00;;
20743;SDS011;56303;52.160;-0.428;2023-12-07T00:11:52;13.17;;;6.47;;
20743;SDS011;56303;52.160;-0.428;2023-12-07T00:14:19;10.27;;;6.73;;
20743;SDS011;56303;52.160;-0.428;2023-12-07T00:16:46;10.27;;;7.10;;
20743;SDS011;56303;52.160;-0.428;2023-12-07T00:19:13;8.63;;;6.53;;
20743;SDS011;56303;52.160;-0.428;2023-12-07T00:21:40;11.03;;;7.00;;
20743;SDS011;56303;52.160;-0.428;2023-12-07T00:24:07;13.73;;;7.27;;
20743;SDS011;56303;52.160;-0.428;2023-12-07T00:26:34;11.73;;;7.37;;
20743;SDS011;56303;52.160;-0.428;2023-12-07T00:29:01;17.27;;;8.03;;
20743;SDS011;56303;52.160;-0.428;2023-12-07T00:31:28;11.17;;;7.30;;
20743;SDS011;56303;52.160;-0.428;2023-12-07T00:33:56;11.90;;;6.87;;
20743;SDS011;56303;52.160;-0.428;2023-12-07T00:36:23;11.03;;;7.70;;
20743;SDS011;56303;52.160;-0.428;2023-12-07T00:38:50;12.20;;;8.50;;
20743;SDS011;56303;52.160;-0.428;2023-12-07T00:41:17;13.73;;;7.87;;
20743;SDS011;56303;52.160;-0.428;2023-12-07T00:43:43;12.03;;;7.90;;
20743;SDS011;56303;52.160;-0.428;2023-12-07T00:46:10;15.23;;;8.47;;
20743;SDS011;56303;52.160;-0.428;2023-12-07T00:48:37;13.83;;;8.40;;
20743;SDS011;56303;52.160;-0.428;2023-12-07T00:51:04;12.70;;;8.73;;
20743;SDS011;56303;52.160;-0.428;2023-12-07T00:53:32;11.57;;;8.40;;
20743;SDS011;56303;52.160;-0.428;2023-12-07T00:55:59;10.43;;;7.20;;
20743;SDS011;56303;52.160;-0.428;2023-12-07T00:58:26;13.50;;;8.77;;
20743;SDS011;56303;52.160;-0.428;2023-12-07T01:00:55;10.37;;;7.60;;
20743;SDS011;56303;52.160;-0.428;2023-12-07T01:03:21;11.90;;;8.47;;
20743;SDS011;56303;52.160;-0.428;2023-12-07T01:05:48;14.93;;;8.23;;
20743;SDS011;56303;52.160;-0.428;2023-12-07T01:08:16;10.73;;;8.40;;
20743;SDS011;56303;52.160;-0.428;2023-12-07T01:10:42;13.27;;;8.17;;
20743;SDS011;56303;52.160;-0.428;2023-12-07T01:13:09;9.17;;;6.80;;
20743;SDS011;56303;52.160;-0.428;2023-12-07T01:15:36;15.50;;;9.10;;
20743;SDS011;56303;52.160;-0.428;2023-12-07T01:18:03;13.87;;;8.90;;
20743;SDS011;56303;52.160;-0.428;2023-12-07T01:20:31;11.30;;;7.43;;
20743;SDS011;56303;52.160;-0.428;2023-12-07T01:22:58;12.03;;;8.10;;
20743;SDS011;56303;52.160;-0.428;2023-12-07T01:25:24;11.43;;;7.93;;
20743;SDS011;56303;52.160;-0.428;2023-12-07T01:27:52;8.87;;;7.37;;
20743;SDS011;56303;52.160;-0.428;2023-12-07T01:30:18;9.67;;;7.00;;
20743;SDS011;56303;52.160;-0.428;2023-12-07T01:32:45;12.30;;;8.20;;
20743;SDS011;56303;52.160;-0.428;2023-12-07T01:35:12;10.30;;;6.80;;
20743;SDS011;56303;52.160;-0.428;2023-12-07T01:37:39;12.80;;;7.17;;
20743;SDS011;56303;52.160;-0.428;2023-12-07T01:40:07;9.03;;;6.57;;
20743;SDS011;56303;52.160;-0.428;2023-12-07T01:42:37;11.70;;;6.93;;
20743;SDS011;56303;52.160;-0.428;2023-12-07T01:45:05;10.70;;;6.60;;
20743;SDS011;56303;52.160;-0.428;2023-12-07T01:47:33;12.37;;;7.27;;
20743;SDS011;56303;52.160;-0.428;2023-12-07T01:50:02;9.97;;;6.77;;
20743;SDS011;56303;52.160;-0.428;2023-12-07T01:52:32;9.47;;;6.13;;
20743;SDS011;56303;52.160;-0.428;2023-12-07T01:55:04;11.47;;;7.23;;
20743;SDS011;56303;52.160;-0.428;2023-12-07T01:57:32;9.90;;;6.43;;
20743;SDS011;56303;52.160;-0.428;2023-12-07T02:00:00;10.83;;;6.20;;
20743;SDS011;56303;52.160;-0.428;2023-12-07T02:02:27;10.77;;;6.87;;
20743;SDS011;56303;52.160;-0.428;2023-12-07T02:04:54;8.07;;;6.37;;
20743;SDS011;56303;52.160;-0.428;2023-12-07T02:07:22;12.93;;;7.07;;
20743;SDS011;56303;52.160;-0.428;2023-12-07T02:09:49;9.23;;;6.80;;
20743;SDS011;56303;52.160;-0.428;2023-12-07T02:12:17;11.03;;;7.00;;
20743;SDS011;56303;52.160;-0.428;2023-12-07T02:14:45;10.57;;;6.07;;
20743;SDS011;56303;52.160;-0.428;2023-12-07T02:17:21;8.97;;;6.53;;
20743;SDS011;56303;52.160;-0.428;2023-12-07T02:19:56;9.37;;;5.70;;
20743;SDS011;56303;52.160;-0.428;2023-12-07T02:22:37;9.20;;;6.17;;
20743;SDS011;56303;52.160;-0.428;2023-12-07T02:25:10;10.63;;;5.97;;
20743;SDS011;56303;52.160;-0.428;2023-12-07T02:27:42;10.17;;;5.93;;
20743;SDS011;56303;52.160;-0.428;2023-12-07T02:30:13;8.70;;;6.00;;
20743;SDS011;56303;52.160;-0.428;2023-12-07T02:32:41;9.70;;;6.17;;
20743;SDS011;56303;52.160;-0.428;2023-12-07T02:35:11;8.60;;;5.87;;
20743;SDS011;56303;52.160;-0.428;2023-12-07T02:37:43;9.27;;;6.23;;
20743;SDS011;56303;52.160;-0.428;2023-12-07T02:40:14;13.20;;;7.50;;
20743;SDS011;56303;52.160;-0.428;2023-12-07T02:42:47;11.07;;;6.10;;
20743;SDS011;56303;52.160;-0.428;2023-12-07T02:45:15;10.93;;;6.30;;
20743;SDS011;56303;52.160;-0.428;2023-12-07T02:47:42;10.23;;;6.90;;
20743;SDS011;56303;52.160;-0.428;2023-12-07T02:50:12;11.10;;;6.47;;
20743;SDS011;56303;52.160;-0.428;2023-12-07T02:52:39;8.80;;;6.10;;
20743;SDS011;56303;52.160;-0.428;2023-12-07T02:55:07;7.70;;;5.57;;
20743;SDS011;56303;52.160;-0.428;2023-12-07T02:57:37;12.80;;;7.03;;
20743;SDS011;56303;52.160;-0.428;2023-12-07T03:00:05;8.43;;;5.37;;
20743;SDS011;56303;52.160;-0.428;2023-12-07T03:02:33;10.77;;;6.47;;
20743;SDS011;56303;52.160;-0.428;2023-12-07T03:05:01;7.63;;;5.43;;
20743;SDS011;56303;52.160;-0.428;2023-12-07T03:07:29;11.47;;;6.27;;
20743;SDS011;56303;52.160;-0.428;2023-12-07T03:09:56;10.67;;;6.03;;
20743;SDS011;56303;52.160;-0.428;2023-12-07T03:12:23;16.93;;;6.77;;
20743;SDS011;56303;52.160;-0.428;2023-12-07T03:14:51;11.80;;;6.00;;
20743;SDS011;56303;52.160;-0.428;2023-12-07T03:17:18;11.80;;;5.73;;
20743;SDS011;56303;52.160;-0.428;2023-12-07T03:19:45;10.43;;;6.40;;
20743;SDS011;56303;52.160;-0.428;2023-12-07T03:22:11;10.23;;;6.30;;
20743;SDS011;56303;52.160;-0.428;2023-12-07T03:24:43;9.77;;;6.30;;
20743;SDS011;56303;52.160;-0.428;2023-12-07T03:27:12;12.47;;;6.60;;
20743;SDS011;56303;52.160;-0.428;2023-12-07T03:29:39;10.00;;;6.53;;
20743;SDS011;56303;52.160;-0.428;2023-12-07T03:32:07;9.27;;;6.27;;
20743;SDS011;56303;52.160;-0.428;2023-12-07T03:34:34;11.67;;;6.47;;
20743;SDS011;56303;52.160;-0.428;2023-12-07T03:37:01;10.97;;;5.40;;
20743;SDS011;56303;52.160;-0.428;2023-12-07T03:39:29;10.57;;;6.50;;
20743;SDS011;56303;52.160;-0.428;2023-12-07T03:41:59;11.77;;;6.30;;
20743;SDS011;56303;52.160;-0.428;2023-12-07T03:44:26;11.43;;;5.97;;
20743;SDS011;56303;52.160;-0.428;2023-12-07T03:46:53;10.50;;;6.17;;
20743;SDS011;56303;52.160;-0.428;2023-12-07T03:49:21;13.00;;;6.70;;
20743;SDS011;56303;52.160;-0.428;2023-12-07T03:51:48;11.40;;;6.57;;
20743;SDS011;56303;52.160;-0.428;2023-12-07T03:54:15;10.87;;;7.10;;
20743;SDS011;56303;52.160;-0.428;2023-12-07T03:56:42;11.60;;;6.83;;
20743;SDS011;56303;52.160;-0.428;2023-12-07T03:59:09;11.87;;;6.63;;
20743;SDS011;56303;52.160;-0.428;2023-12-07T04:01:36;9.47;;;6.33;;
20743;SDS011;56303;52.160;-0.428;2023-12-07T04:04:03;9.50;;;6.10;;
20743;SDS011;56303;52.160;-0.428;2023-12-07T04:06:31;14.43;;;7.00;;
20743;SDS011;56303;52.160;-0.428;2023-12-07T04:08:58;10.60;;;5.73;;
20743;SDS011;56303;52.160;-0.428;2023-12-07T04:11:25;7.90;;;5.73;;
20743;SDS011;56303;52.160;-0.428;2023-12-07T04:13:52;10.47;;;6.33;;
20743;SDS011;56303;52.160;-0.428;2023-12-07T04:16:19;11.33;;;5.77;;
20743;SDS011;56303;52.160;-0.428;2023-12-07T04:18:46;14.33;;;7.10;;
20743;SDS011;56303;52.160;-0.428;2023-12-07T04:21:13;9.97;;;6.37;;
20743;SDS011;56303;52.160;-0.428;2023-12-07T04:23:40;8.47;;;5.87;;
20743;SDS011;56303;52.160;-0.428;2023-12-07T04:26:07;8.67;;;6.47;;
20743;SDS011;56303;52.160;-0.428;2023-12-07T04:28:34;12.67;;;5.93;;
20743;SDS011;56303;52.160;-0.428;2023-12-07T04:31:01;11.70;;;6.33;;
20743;SDS011;56303;52.160;-0.428;2023-12-07T04:33:29;15.03;;;6.20;;
20743;SDS011;56303;52.160;-0.428;2023-12-07T04:35:56;10.40;;;5.80;;
20743;SDS011;56303;52.160;-0.428;2023-12-07T04:38:23;12.47;;;6.03;;
20743;SDS011;56303;52.160;-0.428;2023-12-07T04:40:50;8.50;;;5.73;;
20743;SDS011;56303;52.160;-0.428;2023-12-07T04:43:17;8.73;;;5.83;;
20743;SDS011;56303;52.160;-0.428;2023-12-07T04:45:43;11.07;;;6.30;;
20743;SDS011;56303;52.160;-0.428;2023-12-07T04:48:10;15.40;;;6.63;;
20743;SDS011;56303;52.160;-0.428;2023-12-07T04:50:38;9.83;;;5.80;;
20743;SDS011;56303;52.160;-0.428;2023-12-07T04:53:05;10.90;;;5.90;;
20743;SDS011;56303;52.160;-0.428;2023-12-07T04:55:31;8.43;;;6.03;;
20743;SDS011;56303;52.160;-0.428;2023-12-07T04:57:59;14.53;;;6.87;;
20743;SDS011;56303;52.160;-0.428;2023-12-07T05:00:25;8.40;;;6.00;;
20743;SDS011;56303;52.160;-0.428;2023-12-07T05:02:53;11.33;;;5.80;;
20743;SDS011;56303;52.160;-0.428;2023-12-07T05:05:20;9.53;;;6.50;;
20743;SDS011;56303;52.160;-0.428;2023-12-07T05:07:47;15.37;;;8.17;;
20743;SDS011;56303;52.160;-0.428;2023-12-07T05:10:14;10.63;;;6.50;;
20743;SDS011;56303;52.160;-0.428;2023-12-07T05:12:41;12.20;;;6.87;;
20743;SDS011;56303;52.160;-0.428;2023-12-07T05:15:08;10.90;;;6.53;;
20743;SDS011;56303;52.160;-0.428;2023-12-07T05:17:35;12.33;;;6.67;;
20743;SDS011;56303;52.160;-0.428;2023-12-07T05:20:02;12.33;;;7.90;;
20743;SDS011;56303;52.160;-0.428;2023-12-07T05:22:31;15.77;;;7.23;;
20743;SDS011;56303;52.160;-0.428;2023-12-07T05:24:58;14.20;;;8.17;;
20743;SDS011;56303;52.160;-0.428;2023-12-07T05:27:25;11.07;;;7.13;;
20743;SDS011;56303;52.160;-0.428;2023-12-07T05:29:52;12.97;;;7.07;;
20743;SDS011;56303;52.160;-0.428;2023-12-07T05:32:19;12.27;;;7.00;;
20743;SDS011;56303;52.160;-0.428;2023-12-07T05:34:46;11.37;;;6.60;;
20743;SDS011;56303;52.160;-0.428;2023-12-07T05:37:13;10.93;;;6.97;;
20743;SDS011;56303;52.160;-0.428;2023-12-07T05:39:39;11.13;;;6.80;;
20743;SDS011;56303;52.160;-0.428;2023-12-07T05:42:06;11.83;;;6.50;;
20743;SDS011;56303;52.160;-0.428;2023-12-07T05:44:33;10.97;;;6.80;;
20743;SDS011;56303;52.160;-0.428;2023-12-07T05:47:00;10.97;;;7.17;;
20743;SDS011;56303;52.160;-0.428;2023-12-07T05:49:27;11.43;;;6.33;;
20743;SDS011;56303;52.160;-0.428;2023-12-07T05:51:54;12.37;;;6.70;;
20743;SDS011;56303;52.160;-0.428;2023-12-07T05:54:21;8.50;;;5.70;;
20743;SDS011;56303;52.160;-0.428;2023-12-07T05:56:48;11.13;;;6.40;;
20743;SDS011;56303;52.160;-0.428;2023-12-07T05:59:16;12.43;;;6.30;;
20743;SDS011;56303;52.160;-0.428;2023-12-07T06:01:43;10.83;;;5.93;;
20743;SDS011;56303;52.160;-0.428;2023-12-07T06:04:10;10.27;;;6.10;;
20743;SDS011;56303;52.160;-0.428;2023-12-07T06:06:39;10.00;;;5.90;;
20743;SDS011;56303;52.160;-0.428;2023-12-07T06:09:06;9.23;;;5.83;;
20743;SDS011;56303;52.160;-0.428;2023-12-07T06:11:34;14.07;;;6.17;;
20743;SDS011;56303;52.160;-0.428;2023-12-07T06:14:01;11.53;;;6.40;;
20743;SDS011;56303;52.160;-0.428;2023-12-07T06:16:29;10.43;;;6.73;;
20743;SDS011;56303;52.160;-0.428;2023-12-07T06:18:56;11.40;;;6.33;;
20743;SDS011;56303;52.160;-0.428;2023-12-07T06:21:23;13.50;;;6.13;;
20743;SDS011;56303;52.160;-0.428;2023-12-07T06:23:51;9.90;;;5.90;;
20743;SDS011;56303;52.160;-0.428;2023-12-07T06:26:19;11.27;;;6.97;;
20743;SDS011;56303;52.160;-0.428;2023-12-07T06:28:46;9.90;;;5.97;;
20743;SDS011;56303;52.160;-0.428;2023-12-07T06:31:13;9.10;;;5.53;;
20743;SDS011;56303;52.160;-0.428;2023-12-07T06:33:46;12.17;;;5.60;;
20743;SDS011;56303;52.160;-0.428;2023-12-07T06:36:23;9.60;;;5.87;;
20743;SDS011;56303;52.160;-0.428;2023-12-07T06:38:50;10.97;;;6.10;;
20743;SDS011;56303;52.160;-0.428;2023-12-07T06:41:17;10.87;;;5.73;;
20743;SDS011;56303;52.160;-0.428;2023-12-07T06:43:45;9.10;;;6.13;;
20743;SDS011;56303;52.160;-0.428;2023-12-07T06:46:12;12.87;;;7.00;;
20743;SDS011;56303;52.160;-0.428;2023-12-07T06:48:40;9.50;;;6.17;;
20743;SDS011;56303;52.160;-0.428;2023-12-07T06:51:08;10.80;;;5.90;;
20743;SDS011;56303;52.160;-0.428;2023-12-07T06:53:35;9.87;;;5.80;;
20743;SDS011;56303;52.160;-0.428;2023-12-07T06:56:02;9.77;;;6.03;;
20743;SDS011;56303;52.160;-0.428;2023-12-07T06:58:29;9.37;;;5.40;;
20743;SDS011;56303;52.160;-0.428;2023-12-07T07:00:56;11.67;;;6.17;;
20743;SDS011;56303;52.160;-0.428;2023-12-07T07:03:24;10.30;;;6.53;;
20743;SDS011;56303;52.160;-0.428;2023-12-07T07:05:51;9.77;;;6.40;;
20743;SDS011;56303;52.160;-0.428;2023-12-07T07:08:18;11.43;;;6.23;;
20743;SDS011;56303;52.160;-0.428;2023-12-07T07:10:45;8.73;;;5.63;;
20743;SDS011;56303;52.160;-0.428;2023-12-07T07:13:15;9.07;;;5.47;;
20743;SDS011;56303;52.160;-0.428;2023-12-07T07:15:43;11.00;;;6.83;;
20743;SDS011;56303;52.160;-0.428;2023-12-07T07:18:11;12.63;;;6.50;;
20743;SDS011;56303;52.160;-0.428;2023-12-07T07:20:39;11.57;;;7.03;;
20743;SDS011;56303;52.160;-0.428;2023-12-07T07:23:06;11.87;;;6.87;;
20743;SDS011;56303;52.160;-0.428;2023-12-07T07:25:34;10.70;;;6.53;;
20743;SDS011;56303;52.160;-0.428;2023-12-07T07:28:02;10.60;;;7.77;;
20743;SDS011;56303;52.160;-0.428;2023-12-07T07:30:29;11.93;;;7.83;;
20743;SDS011;56303;52.160;-0.428;2023-12-07T07:32:56;10.63;;;6.90;;
20743;SDS011;56303;52.160;-0.428;2023-12-07T07:35:23;12.33;;;8.17;;
20743;SDS011;56303;52.160;-0.428;2023-12-07T07:37:51;9.60;;;7.23;;
20743;SDS011;56303;52.160;-0.428;2023-12-07T07:40:17;9.57;;;6.93;;
20743;SDS011;56303;52.160;-0.428;2023-12-07T07:42:44;12.80;;;8.93;;
20743;SDS011;56303;52.160;-0.428;2023-12-07T07:45:13;11.03;;;6.47;;
20743;SDS011;56303;52.160;-0.428;2023-12-07T07:47:40;11.00;;;7.30;;
20743;SDS011;56303;52.160;-0.428;2023-12-07T07:50:08;9.30;;;7.17;;
20743;SDS011;56303;52.160;-0.428;2023-12-07T07:52:37;10.77;;;6.67;;
20743;SDS011;56303;52.160;-0.428;2023-12-07T07:55:04;11.67;;;7.43;;
20743;SDS011;56303;52.160;-0.428;2023-12-07T07:57:31;8.87;;;6.80;;
20743;SDS011;56303;52.160;-0.428;2023-12-07T07:59:58;10.50;;;6.70;;
20743;SDS011;56303;52.160;-0.428;2023-12-07T08:02:25;9.10;;;7.20;;
20743;SDS011;56303;52.160;-0.428;2023-12-07T08:04:53;10.73;;;7.60;;
20743;SDS011;56303;52.160;-0.428;2023-12-07T08:07:20;10.17;;;7.33;;
20743;SDS011;56303;52.160;-0.428;2023-12-07T08:09:47;13.57;;;8.33;;
20743;SDS011;56303;52.160;-0.428;2023-12-07T08:12:14;11.03;;;8.40;;
20743;SDS011;56303;52.160;-0.428;2023-12-07T08:14:41;13.83;;;8.30;;
20743;SDS011;56303;52.160;-0.428;2023-12-07T08:17:10;10.90;;;8.00;;
20743;SDS011;56303;52.160;-0.428;2023-12-07T08:19:38;11.90;;;8.63;;
20743;SDS011;56303;52.160;-0.428;2023-12-07T08:22:05;9.97;;;8.40;;
20743;SDS011;56303;52.160;-0.428;2023-12-07T08:24:32;11.70;;;8.77;;
20743;SDS011;56303;52.160;-0.428;2023-12-07T08:26:59;12.33;;;8.43;;
20743;SDS011;56303;52.160;-0.428;2023-12-07T08:29:26;13.20;;;8.57;;
20743;SDS011;56303;52.160;-0.428;2023-12-07T08:31:53;12.07;;;8.43;;
20743;SDS011;56303;52.160;-0.428;2023-12-07T08:34:20;13.47;;;8.50;;
20743;SDS011;56303;52.160;-0.428;2023-12-07T08:36:49;13.13;;;8.17;;
20743;SDS011;56303;52.160;-0.428;2023-12-07T08:39:16;13.13;;;8.50;;
20743;SDS011;56303;52.160;-0.428;2023-12-07T08:41:43;16.13;;;8.43;;
20743;SDS011;56303;52.160;-0.428;2023-12-07T08:44:10;12.47;;;9.13;;
20743;SDS011;56303;52.160;-0.428;2023-12-07T08:46:37;18.17;;;10.23;;
20743;SDS011;56303;52.160;-0.428;2023-12-07T08:49:05;13.77;;;8.47;;
20743;SDS011;56303;52.160;-0.428;2023-12-07T08:51:32;13.97;;;9.10;;
20743;SDS011;56303;52.160;-0.428;2023-12-07T08:54:00;11.93;;;8.20;;
20743;SDS011;56303;52.160;-0.428;2023-12-07T08:56:27;13.40;;;8.20;;
20743;SDS011;56303;52.160;-0.428;2023-12-07T08:58:54;13.23;;;8.87;;
20743;SDS011;56303;52.160;-0.428;2023-12-07T09:01:21;12.57;;;7.53;;
20743;SDS011;56303;52.160;-0.428;2023-12-07T09:03:58;13.50;;;8.40;;
20743;SDS011;56303;52.160;-0.428;2023-12-07T09:06:25;9.87;;;7.40;;
20743;SDS011;56303;52.160;-0.428;2023-12-07T09:08:55;14.27;;;7.90;;
20743;SDS011;56303;52.160;-0.428;2023-12-07T09:11:21;10.80;;;7.30;;
20743;SDS011;56303;52.160;-0.428;2023-12-07T09:13:50;12.60;;;8.10;;
20743;SDS011;56303;52.160;-0.428;2023-12-07T09:16:17;12.67;;;8.80;;
20743;SDS011;56303;52.160;-0.428;2023-12-07T09:18:44;12.63;;;8.57;;
20743;SDS011;56303;52.160;-0.428;2023-12-07T09:21:12;12.93;;;8.80;;
20743;SDS011;56303;52.160;-0.428;2023-12-07T09:23:40;10.33;;;8.77;;
20743;SDS011;56303;52.160;-0.428;2023-12-07T09:26:08;11.23;;;7.87;;
20743;SDS011;56303;52.160;-0.428;2023-12-07T09:28:35;12.47;;;9.37;;
20743;SDS011;56303;52.160;-0.428;2023-12-07T09:31:02;13.73;;;8.40;;
20743;SDS011;56303;52.160;-0.428;2023-12-07T09:33:29;11.67;;;8.13;;
20743;SDS011;56303;52.160;-0.428;2023-12-07T09:35:56;15.47;;;8.10;;
20743;SDS011;56303;52.160;-0.428;2023-12-07T09:38:23;13.27;;;7.83;;
20743;SDS011;56303;52.160;-0.428;2023-12-07T09:40:53;12.30;;;8.27;;
20743;SDS011;56303;52.160;-0.428;2023-12-07T09:43:20;13.53;;;8.37;;
20743;SDS011;56303;52.160;-0.428;2023-12-07T09:45:48;9.57;;;7.03;;
20743;SDS011;56303;52.160;-0.428;2023-12-07T09:48:16;11.33;;;8.20;;
20743;SDS011;56303;52.160;-0.428;2023-12-07T09:50:44;13.37;;;7.60;;
20743;SDS011;56303;52.160;-0.428;2023-12-07T09:53:11;11.53;;;7.53;;
20743;SDS011;56303;52.160;-0.428;2023-12-07T09:55:38;10.60;;;7.20;;
20743;SDS011;56303;52.160;-0.428;2023-12-07T09:58:06;10.17;;;7.90;;
20743;SDS011;56303;52.160;-0.428;2023-12-07T10:00:35;10.97;;;7.57;;
20743;SDS011;56303;52.160;-0.428;2023-12-07T10:03:03;10.83;;;7.27;;
20743;SDS011;56303;52.160;-0.428;2023-12-07T10:05:46;13.90;;;7.53;;
20743;SDS011;56303;52.160;-0.428;2023-12-07T10:08:31;9.97;;;7.67;;
20743;SDS011;56303;52.160;-0.428;2023-12-07T10:11:17;10.13;;;7.40;;
20743;SDS011;56303;52.160;-0.428;2023-12-07T10:13:44;9.73;;;6.93;;
20743;SDS011;56303;52.160;-0.428;2023-12-07T10:16:12;11.67;;;7.87;;
20743;SDS011;56303;52.160;-0.428;2023-12-07T10:18:44;14.93;;;7.13;;
20743;SDS011;56303;52.160;-0.428;2023-12-07T10:21:11;11.07;;;6.57;;
20743;SDS011;56303;52.160;-0.428;2023-12-07T10:23:41;9.30;;;6.80;;
20743;SDS011;56303;52.160;-0.428;2023-12-07T10:26:15;8.93;;;6.27;;
20743;SDS011;56303;52.160;-0.428;2023-12-07T10:28:46;12.30;;;6.63;;
20743;SDS011;56303;52.160;-0.428;2023-12-07T10:31:20;12.47;;;7.47;;
20743;SDS011;56303;52.160;-0.428;2023-12-07T10:33:49;11.27;;;6.70;;
20743;SDS011;56303;52.160;-0.428;2023-12-07T10:36:16;13.37;;;6.90;;
20743;SDS011;56303;52.160;-0.428;2023-12-07T10:38:43;8.97;;;6.57;;
20743;SDS011;56303;52.160;-0.428;2023-12-07T10:41:12;12.87;;;6.50;;
20743;SDS011;56303;52.160;-0.428;2023-12-07T10:43:43;10.80;;;6.07;;
20743;SDS011;56303;52.160;-0.428;2023-12-07T10:46:14;11.23;;;7.17;;
20743;SDS011;56303;52.160;-0.428;2023-12-07T10:48:45;7.13;;;5.67;;
20743;SDS011;56303;52.160;-0.428;2023-12-07T10:51:23;11.27;;;6.33;;
20743;SDS011;56303;52.160;-0.428;2023-12-07T10:54:04;13.70;;;6.33;;
20743;SDS011;56303;52.160;-0.428;2023-12-07T10:56:43;9.83;;;5.80;;
20743;SDS011;56303;52.160;-0.428;2023-12-07T10:59:12;9.73;;;5.47;;
20743;SDS011;56303;52.160;-0.428;2023-12-07T11:01:55;11.37;;;5.80;;
20743;SDS011;56303;52.160;-0.428;2023-12-07T11:04:24;7.87;;;6.00;;
20743;SDS011;56303;52.160;-0.428;2023-12-07T11:06:52;8.97;;;6.37;;
20743;SDS011;56303;52.160;-0.428;2023-12-07T11:09:25;11.57;;;6.60;;
20743;SDS011;56303;52.160;-0.428;2023-12-07T11:12:00;11.97;;;5.43;;
20743;SDS011;56303;52.160;-0.428;2023-12-07T11:14:37;12.17;;;5.43;;
20743;SDS011;56303;52.160;-0.428;2023-12-07T11:17:05;10.60;;;5.60;;
20743;SDS011;56303;52.160;-0.428;2023-12-07T11:22:03;9.73;;;5.30;;
20743;SDS011;56303;52.160;-0.428;2023-12-07T11:24:32;10.60;;;5.67;;
20743;SDS011;56303;52.160;-0.428;2023-12-07T11:26:59;9.90;;;5.47;;
20743;SDS011;56303;52.160;-0.428;2023-12-07T11:29:30;13.83;;;6.23;;
20743;SDS011;56303;52.160;-0.428;2023-12-07T11:32:01;8.73;;;5.43;;
20743;SDS011;56303;52.160;-0.428;2023-12-07T11:34:44;8.97;;;4.90;;
20743;SDS011;56303;52.160;-0.428;2023-12-07T11:37:14;10.43;;;5.03;;
20743;SDS011;56303;52.160;-0.428;2023-12-07T11:39:45;9.87;;;5.30;;
20743;SDS011;56303;52.160;-0.428;2023-12-07T11:42:12;11.30;;;5.40;;
20743;SDS011;56303;52.160;-0.428;2023-12-07T11:44:42;11.23;;;5.10;;
20743;SDS011;56303;52.160;-0.428;2023-12-07T11:47:16;11.73;;;5.83;;
20743;SDS011;56303;52.160;-0.428;2023-12-07T11:49:45;9.10;;;5.27;;
20743;SDS011;56303;52.160;-0.428;2023-12-07T11:52:16;11.37;;;5.57;;
20743;SDS011;56303;52.160;-0.428;2023-12-07T11:54:47;9.77;;;5.13;;
20743;SDS011;56303;52.160;-0.428;2023-12-07T11:57:16;9.20;;;5.30;;
20743;SDS011;56303;52.160;-0.428;2023-12-07T11:59:44;10.37;;;5.10;;
20743;SDS011;56303;52.160;-0.428;2023-12-07T12:02:11;9.27;;;4.97;;
20743;SDS011;56303;52.160;-0.428;2023-12-07T12:04:42;10.43;;;4.93;;
20743;SDS011;56303;52.160;-0.428;2023-12-07T12:07:10;8.97;;;4.77;;
20743;SDS011;56303;52.160;-0.428;2023-12-07T12:09:37;9.93;;;5.37;;
20743;SDS011;56303;52.160;-0.428;2023-12-07T12:12:05;8.00;;;5.03;;
20743;SDS011;56303;52.160;-0.428;2023-12-07T12:14:32;8.97;;;5.27;;
20743;SDS011;56303;52.160;-0.428;2023-12-07T12:16:59;8.53;;;5.07;;
20743;SDS011;56303;52.160;-0.428;2023-12-07T12:19:26;11.23;;;4.53;;
20743;SDS011;56303;52.160;-0.428;2023-12-07T12:22:02;8.37;;;4.77;;
20743;SDS011;56303;52.160;-0.428;2023-12-07T12:24:36;10.13;;;4.20;;
20743;SDS011;56303;52.160;-0.428;2023-12-07T12:27:04;7.97;;;4.53;;
20743;SDS011;56303;52.160;-0.428;2023-12-07T12:29:32;8.30;;;4.80;;
20743;SDS011;56303;52.160;-0.428;2023-12-07T12:32:01;11.17;;;4.57;;
20743;SDS011;56303;52.160;-0.428;2023-12-07T12:34:30;10.90;;;4.60;;
20743;SDS011;56303;52.160;-0.428;2023-12-07T12:36:59;9.80;;;4.50;;
20743;SDS011;56303;52.160;-0.428;2023-12-07T12:39:27;7.43;;;3.90;;
20743;SDS011;56303;52.160;-0.428;2023-12-07T12:42:00;8.47;;;3.63;;
20743;SDS011;56303;52.160;-0.428;2023-12-07T12:44:30;7.87;;;4.23;;
20743;SDS011;56303;52.160;-0.428;2023-12-07T12:47:06;9.37;;;4.50;;
20743;SDS011;56303;52.160;-0.428;2023-12-07T12:49:38;9.90;;;4.30;;
20743;SDS011;56303;52.160;-0.428;2023-12-07T12:52:11;8.93;;;3.83;;
20743;SDS011;56303;52.160;-0.428;2023-12-07T12:54:43;7.33;;;4.33;;
20743;SDS011;56303;52.160;-0.428;2023-12-07T12:57:10;7.03;;;4.27;;
20743;SDS011;56303;52.160;-0.428;2023-12-07T12:59:38;6.93;;;3.67;;
20743;SDS011;56303;52.160;-0.428;2023-12-07T13:02:05;8.47;;;3.83;;
20743;SDS011;56303;52.160;-0.428;2023-12-07T13:04:37;8.07;;;4.10;;
20743;SDS011;56303;52.160;-0.428;2023-12-07T13:07:08;8.00;;;3.83;;
20743;SDS011;56303;52.160;-0.428;2023-12-07T13:09:36;5.83;;;3.93;;
20743;SDS011;56303;52.160;-0.428;2023-12-07T13:12:03;8.50;;;3.90;;
20743;SDS011;56303;52.160;-0.428;2023-12-07T13:14:32;10.03;;;3.67;;
20743;SDS011;56303;52.160;-0.428;2023-12-07T13:17:04;9.47;;;3.70;;
20743;SDS011;56303;52.160;-0.428;2023-12-07T13:19:33;8.23;;;3.63;;
20743;SDS011;56303;52.160;-0.428;2023-12-07T13:22:01;7.80;;;3.97;;
20743;SDS011;56303;52.160;-0.428;2023-12-07T13:24:29;10.30;;;3.87;;
20743;SDS011;56303;52.160;-0.428;2023-12-07T13:26:56;9.37;;;4.10;;
20743;SDS011;56303;52.160;-0.428;2023-12-07T13:29:26;6.93;;;3.67;;
20743;SDS011;56303;52.160;-0.428;2023-12-07T13:32:01;8.07;;;3.80;;
20743;SDS011;56303;52.160;-0.428;2023-12-07T13:34:30;7.70;;;3.97;;
20743;SDS011;56303;52.160;-0.428;2023-12-07T13:36:57;10.60;;;4.30;;
20743;SDS011;56303;52.160;-0.428;2023-12-07T13:39:24;6.47;;;3.60;;
20743;SDS011;56303;52.160;-0.428;2023-12-07T13:41:57;7.80;;;4.77;;
20743;SDS011;56303;52.160;-0.428;2023-12-07T13:44:26;5.97;;;3.40;;
20743;SDS011;56303;52.160;-0.428;2023-12-07T13:46:54;6.70;;;4.10;;
20743;SDS011;56303;52.160;-0.428;2023-12-07T13:49:24;10.63;;;3.63;;
20743;SDS011;56303;52.160;-0.428;2023-12-07T13:51:59;6.80;;;3.90;;
20743;SDS011;56303;52.160;-0.428;2023-12-07T13:54:34;5.37;;;3.30;;
20743;SDS011;56303;52.160;-0.428;2023-12-07T13:57:19;9.33;;;4.17;;
20743;SDS011;56303;52.160;-0.428;2023-12-07T13:59:47;8.33;;;3.90;;
20743;SDS011;56303;52.160;-0.428;2023-12-07T14:02:14;9.07;;;3.77;;
20743;SDS011;56303;52.160;-0.428;2023-12-07T14:04:41;6.27;;;3.50;;
20743;SDS011;56303;52.160;-0.428;2023-12-07T14:07:12;6.27;;;3.70;;
20743;SDS011;56303;52.160;-0.428;2023-12-07T14:09:41;6.27;;;4.20;;
20743;SDS011;56303;52.160;-0.428;2023-12-07T14:12:23;5.53;;;3.87;;
20743;SDS011;56303;52.160;-0.428;2023-12-07T14:14:51;6.67;;;3.90;;
20743;SDS011;56303;52.160;-0.428;2023-12-07T14:17:18;9.07;;;4.20;;
20743;SDS011;56303;52.160;-0.428;2023-12-07T14:19:47;7.60;;;4.20;;
20743;SDS011;56303;52.160;-0.428;2023-12-07T14:22:15;12.70;;;5.03;;
20743;SDS011;56303;52.160;-0.428;2023-12-07T14:24:43;6.80;;;4.00;;
20743;SDS011;56303;52.160;-0.428;2023-12-07T14:27:11;11.13;;;3.80;;
20743;SDS011;56303;52.160;-0.428;2023-12-07T14:29:38;7.63;;;4.23;;
20743;SDS011;56303;52.160;-0.428;2023-12-07T14:32:05;7.87;;;3.90;;
20743;SDS011;56303;52.160;-0.428;2023-12-07T14:34:32;7.53;;;4.03;;
20743;SDS011;56303;52.160;-0.428;2023-12-07T14:37:02;9.30;;;3.73;;